createdAt,value
2019-05-10T00:00:19.414Z,13.61
2019-05-10T00:03:08.905Z,13.62
2019-05-10T00:05:57.235Z,13.63
2019-05-10T00:08:45.689Z,13.61
2019-05-10T00:11:22.709Z,13.62
2019-05-10T00:13:55.931Z,13.56
2019-05-10T00:16:27.553Z,13.49
2019-05-10T00:18:58.632Z,13.57
2019-05-10T00:21:30.278Z,13.48
2019-05-10T00:24:01.120Z,13.46
2019-05-10T00:26:32.307Z,13.51
2019-05-10T00:29:03.194Z,13.57
2019-05-10T00:31:34.202Z,13.63
2019-05-10T00:34:05.528Z,13.57
2019-05-10T00:36:36.206Z,13.56
2019-05-10T00:39:08.079Z,13.62
2019-05-10T00:41:39.062Z,13.69
2019-05-10T00:44:10.118Z,13.73
2019-05-10T00:46:40.774Z,13.70
2019-05-10T00:49:12.110Z,13.75
2019-05-10T00:51:43.170Z,13.82
2019-05-10T00:54:15.198Z,13.90
2019-05-10T00:56:45.879Z,13.93
2019-05-10T00:59:16.705Z,13.87
2019-05-10T01:01:47.701Z,13.84
2019-05-10T01:04:18.771Z,13.81
2019-05-10T01:06:49.916Z,13.64
2019-05-10T01:09:20.917Z,13.90
2019-05-10T01:11:51.623Z,13.82
2019-05-10T01:14:22.722Z,13.74
2019-05-10T01:16:53.368Z,13.75
2019-05-10T01:19:24.051Z,13.75
2019-05-10T01:21:55.121Z,13.65
2019-05-10T01:24:26.160Z,13.67
2019-05-10T01:26:57.197Z,13.47
2019-05-10T01:29:28.828Z,13.47
2019-05-10T01:31:59.691Z,13.45
2019-05-10T01:34:30.820Z,13.13
2019-05-10T01:37:01.607Z,12.96
2019-05-10T01:39:32.627Z,12.99
2019-05-10T01:42:03.358Z,12.95
2019-05-10T01:44:35.502Z,12.70
2019-05-10T01:47:06.429Z,12.84
2019-05-10T01:49:38.096Z,12.54
2019-05-10T01:52:09.047Z,12.63
2019-05-10T01:54:40.114Z,12.67
2019-05-10T01:57:11.919Z,12.54
2019-05-10T01:59:42.994Z,12.66
2019-05-10T02:02:13.974Z,12.58
2019-05-10T02:04:45.198Z,12.39
2019-05-10T02:07:16.073Z,12.52
2019-05-10T02:09:47.099Z,12.53
2019-05-10T02:12:17.832Z,12.45
2019-05-10T02:14:49.066Z,12.53
2019-05-10T02:17:20.204Z,12.57
2019-05-10T02:19:51.924Z,12.41
2019-05-10T02:22:24.025Z,12.43
2019-05-10T02:24:55.044Z,12.42
2019-05-10T02:27:26.093Z,12.52
2019-05-10T02:29:57.117Z,12.59
2019-05-10T02:32:28.095Z,12.61
2019-05-10T02:34:58.764Z,12.65
2019-05-10T02:37:29.541Z,12.63
2019-05-10T02:40:00.207Z,12.56
2019-05-10T02:42:31.609Z,12.47
2019-05-10T02:45:02.287Z,12.14
2019-05-10T02:47:32.960Z,12.38
2019-05-10T02:50:05.255Z,12.50
2019-05-10T02:52:36.270Z,12.50
2019-05-10T02:55:10.568Z,12.47
2019-05-10T02:57:42.314Z,12.44
2019-05-10T03:00:13.715Z,12.51
2019-05-10T03:02:45.792Z,12.44
2019-05-10T03:05:16.830Z,12.54
2019-05-10T03:07:50.881Z,12.49
2019-05-10T03:10:21.517Z,12.53
2019-05-10T03:12:55.730Z,12.40
2019-05-10T03:15:31.361Z,12.48
2019-05-10T03:18:04.541Z,12.55
2019-05-10T03:20:38.532Z,12.37
2019-05-10T03:23:11.164Z,12.45
2019-05-10T03:25:42.159Z,12.52
2019-05-10T03:28:13.246Z,12.61
2019-05-10T03:30:43.987Z,12.50
2019-05-10T03:33:15.001Z,12.45
2019-05-10T03:35:46.429Z,12.45
2019-05-10T03:38:17.394Z,12.50
2019-05-10T03:40:48.047Z,12.35
2019-05-10T03:43:19.025Z,12.33
2019-05-10T03:45:49.691Z,12.33
2019-05-10T03:48:20.382Z,12.17
2019-05-10T03:50:51.367Z,12.19
2019-05-10T03:53:22.317Z,12.19
2019-05-10T03:55:53.241Z,12.12
2019-05-10T03:58:23.905Z,12.13
2019-05-10T04:00:54.901Z,12.20
2019-05-10T04:03:25.599Z,12.38
2019-05-10T04:05:56.251Z,12.41
2019-05-10T04:08:26.968Z,12.44
2019-05-10T04:10:58.031Z,12.36
2019-05-10T04:13:28.736Z,12.47
2019-05-10T04:15:59.833Z,12.43
2019-05-10T04:18:31.192Z,12.41
2019-05-10T04:21:01.844Z,12.33
2019-05-10T04:23:32.541Z,12.38
2019-05-10T04:26:03.193Z,12.47
2019-05-10T04:28:34.220Z,12.57
2019-05-10T04:31:04.909Z,12.64
2019-05-10T04:33:35.552Z,12.70
2019-05-10T04:36:06.228Z,12.68
2019-05-10T04:38:37.073Z,12.74
2019-05-10T04:41:07.748Z,12.76
2019-05-10T04:43:38.421Z,12.71
2019-05-10T04:46:09.098Z,12.65
2019-05-10T04:48:39.838Z,12.72
2019-05-10T04:51:10.526Z,12.66
2019-05-10T04:53:41.567Z,12.77
2019-05-10T04:56:12.350Z,12.76
2019-05-10T04:58:43.323Z,12.81
2019-05-10T05:01:14.285Z,12.90
2019-05-10T05:03:45.049Z,12.79
2019-05-10T05:06:16.052Z,12.85
2019-05-10T05:08:47.101Z,12.74
2019-05-10T05:11:19.118Z,12.73
2019-05-10T05:13:49.795Z,12.87
2019-05-10T05:16:20.761Z,12.91
2019-05-10T05:18:51.769Z,13.13
2019-05-10T05:21:22.572Z,13.27
2019-05-10T05:23:53.679Z,13.33
2019-05-10T05:26:24.349Z,13.34
2019-05-10T05:28:55.360Z,13.51
2019-05-10T05:31:26.016Z,13.65
2019-05-10T05:33:59.223Z,13.69
2019-05-10T05:36:29.412Z,13.55
2019-05-10T05:39:00.129Z,13.52
2019-05-10T05:41:31.926Z,13.29
2019-05-10T05:44:03.007Z,13.37
2019-05-10T05:46:34.647Z,13.64
2019-05-10T05:49:05.624Z,14.02
2019-05-10T05:51:36.658Z,14.53
2019-05-10T05:54:08.668Z,15.29
2019-05-10T05:56:44.613Z,15.73
2019-05-10T05:59:17.506Z,15.52
2019-05-10T06:01:46.095Z,15.25
2019-05-10T06:04:18.590Z,14.67
2019-05-10T06:06:53.820Z,14.80
2019-05-10T06:09:22.688Z,15.13
2019-05-10T06:11:53.678Z,14.93
2019-05-10T06:14:24.407Z,14.74
2019-05-10T06:16:55.098Z,14.98
2019-05-10T06:19:29.365Z,15.05
2019-05-10T06:22:04.605Z,15.76
2019-05-10T06:24:34.192Z,16.05
2019-05-10T06:27:05.059Z,15.80
2019-05-10T06:29:35.749Z,15.46
2019-05-10T06:32:06.527Z,15.35
2019-05-10T06:34:38.789Z,14.61
2019-05-10T06:37:10.156Z,14.64
2019-05-10T06:39:40.876Z,14.63
2019-05-10T06:42:11.967Z,14.54
2019-05-10T06:44:42.718Z,14.66
2019-05-10T06:47:13.779Z,14.25
2019-05-10T06:49:50.651Z,13.98
2019-05-10T06:52:22.004Z,13.88
2019-05-10T06:54:49.697Z,13.74
2019-05-10T06:57:20.702Z,13.68
2019-05-10T06:59:56.477Z,13.77
2019-05-10T07:02:26.758Z,13.85
2019-05-10T07:04:56.735Z,13.91
2019-05-10T07:07:43.429Z,13.83
2019-05-10T07:10:05.719Z,13.61
2019-05-10T07:12:32.576Z,13.45
2019-05-10T07:15:05.496Z,13.63
2019-05-10T07:17:41.311Z,13.51
2019-05-10T07:20:09.896Z,13.51
2019-05-10T07:22:40.589Z,13.56
2019-05-10T07:25:12.145Z,13.71
2019-05-10T07:27:44.273Z,13.89
2019-05-10T07:30:18.109Z,13.99
2019-05-10T07:32:49.098Z,14.23
2019-05-10T07:35:20.039Z,13.98
2019-05-10T07:37:51.819Z,13.92
2019-05-10T07:40:23.090Z,13.66
2019-05-10T07:42:54.030Z,13.79
2019-05-10T07:45:25.753Z,13.64
2019-05-10T07:47:57.136Z,13.79
2019-05-10T07:50:27.834Z,13.88
2019-05-10T07:52:58.493Z,13.96
2019-05-10T07:55:30.153Z,13.84
2019-05-10T07:58:05.063Z,13.82
2019-05-10T08:00:38.158Z,13.73
2019-05-10T08:03:15.462Z,13.49
2019-05-10T08:05:39.342Z,13.41
2019-05-10T08:08:10.286Z,13.33
2019-05-10T08:10:41.230Z,13.31
2019-05-10T08:13:15.363Z,13.29
2019-05-10T08:15:44.670Z,13.03
2019-05-10T08:18:20.375Z,13.22
2019-05-10T08:20:53.749Z,13.37
2019-05-10T08:23:23.837Z,13.45
2019-05-10T08:25:53.545Z,13.64
2019-05-10T08:28:28.027Z,13.88
2019-05-10T08:30:59.036Z,14.04
2019-05-10T08:33:29.799Z,14.07
2019-05-10T08:36:04.983Z,14.03
2019-05-10T08:38:33.456Z,14.10
2019-05-10T08:41:08.243Z,14.32
2019-05-10T08:43:38.763Z,14.23
2019-05-10T08:46:11.804Z,14.40
2019-05-10T08:48:46.552Z,14.57
2019-05-10T08:51:14.654Z,14.54
2019-05-10T08:53:47.067Z,14.39
2019-05-10T08:56:23.404Z,14.66
2019-05-10T08:58:53.351Z,14.64
2019-05-10T09:01:29.551Z,14.66
2019-05-10T09:04:01.987Z,14.70
2019-05-10T09:06:29.539Z,14.72
2019-05-10T09:09:03.186Z,14.80
2019-05-10T09:11:35.194Z,15.01
2019-05-10T09:14:14.456Z,15.41
2019-05-10T09:16:43.707Z,16.36
2019-05-10T09:19:12.912Z,17.71
2019-05-10T09:21:49.944Z,18.15
2019-05-10T09:24:15.990Z,18.49
2019-05-10T09:26:51.624Z,18.62
2019-05-10T09:29:19.045Z,19.23
2019-05-10T09:31:51.228Z,18.60
2019-05-10T09:34:26.218Z,18.19
2019-05-10T09:36:56.374Z,17.71
2019-05-10T09:39:27.344Z,17.48
2019-05-10T09:41:58.478Z,17.07
2019-05-10T09:44:29.411Z,17.06
2019-05-10T09:47:03.674Z,16.94
2019-05-10T09:49:33.310Z,16.96
2019-05-10T09:52:12.417Z,16.27
2019-05-10T09:54:38.082Z,16.42
2019-05-10T09:57:09.186Z,16.94
2019-05-10T09:59:39.859Z,18.28
2019-05-10T10:02:18.143Z,19.27
2019-05-10T10:04:44.423Z,19.67
2019-05-10T10:07:18.733Z,19.19
2019-05-10T10:09:47.889Z,19.50
2019-05-10T10:12:18.640Z,19.18
2019-05-10T10:14:49.563Z,17.49
2019-05-10T10:17:20.685Z,17.45
2019-05-10T10:19:51.392Z,17.31
2019-05-10T10:22:22.070Z,16.89
2019-05-10T10:24:55.243Z,16.93
2019-05-10T10:27:33.817Z,16.55
2019-05-10T10:29:58.015Z,16.51
2019-05-10T10:32:33.156Z,16.40
2019-05-10T10:35:01.616Z,16.18
2019-05-10T10:37:32.773Z,16.38
2019-05-10T10:40:07.874Z,16.60
2019-05-10T10:42:38.049Z,16.75
2019-05-10T10:45:09.830Z,16.85
2019-05-10T10:47:40.801Z,17.17
2019-05-10T10:50:13.622Z,16.83
2019-05-10T10:52:44.580Z,16.73
2019-05-10T10:55:18.503Z,17.78
2019-05-10T10:57:48.844Z,19.15
2019-05-10T11:00:33.357Z,19.56
2019-05-10T11:03:05.503Z,18.57
2019-05-10T11:05:37.998Z,18.17
2019-05-10T11:08:11.021Z,17.54
2019-05-10T11:10:42.899Z,17.32
2019-05-10T11:13:23.770Z,16.99
2019-05-10T11:15:51.694Z,16.81
2019-05-10T11:18:24.217Z,16.69
2019-05-10T11:20:55.006Z,16.43
2019-05-10T11:23:33.971Z,16.53
2019-05-10T11:25:58.137Z,16.35
2019-05-10T11:28:32.075Z,16.22
2019-05-10T11:31:03.679Z,16.14
2019-05-10T11:33:34.541Z,15.85
2019-05-10T11:36:08.609Z,15.76
2019-05-10T11:38:41.991Z,15.99
2019-05-10T11:41:20.622Z,15.89
2019-05-10T11:43:45.405Z,16.04
2019-05-10T11:46:16.080Z,16.29
2019-05-10T11:48:47.026Z,16.85
2019-05-10T11:51:18.024Z,17.25
2019-05-10T11:53:54.586Z,17.21
2019-05-10T11:56:27.379Z,17.38
2019-05-10T12:01:26.366Z,17.18
2019-05-10T12:03:57.380Z,17.25
2019-05-10T12:06:31.766Z,17.80
2019-05-10T12:09:04.543Z,17.85
2019-05-10T12:11:40.808Z,17.25
2019-05-10T12:14:07.392Z,16.88
2019-05-10T12:16:41.755Z,16.80
2019-05-10T12:19:19.843Z,16.76
2019-05-10T12:21:43.148Z,16.58
2019-05-10T12:24:32.450Z,16.26
2019-05-10T12:26:15.807Z,16.96
2019-05-10T12:29:21.142Z,16.57
2019-05-10T12:31:53.396Z,17.08
2019-05-10T12:34:23.838Z,17.27
2019-05-10T12:36:57.460Z,17.55
2019-05-10T12:39:27.209Z,17.18
2019-05-10T12:41:57.896Z,17.32
2019-05-10T12:44:33.152Z,17.32
2019-05-10T12:47:01.378Z,17.48
2019-05-10T12:49:36.281Z,17.28
2019-05-10T12:52:09.058Z,17.33
2019-05-10T12:54:38.542Z,17.34
2019-05-10T12:57:09.233Z,17.53
2019-05-10T12:59:39.928Z,17.47
2019-05-10T13:02:12.980Z,17.51
2019-05-10T13:04:47.010Z,17.25
2019-05-10T13:07:15.422Z,17.35
2019-05-10T13:09:49.624Z,17.49
2019-05-10T13:12:18.746Z,18.04
2019-05-10T13:14:52.689Z,18.53
2019-05-10T13:17:22.599Z,18.58
2019-05-10T13:19:58.585Z,18.79
2019-05-10T13:22:36.639Z,18.76
2019-05-10T13:25:01.849Z,18.53
2019-05-10T13:27:32.538Z,18.95
2019-05-10T13:30:05.166Z,18.96
2019-05-10T13:32:35.807Z,19.36
2019-05-10T13:35:07.650Z,19.30
2019-05-10T13:37:38.278Z,19.09
2019-05-10T13:40:09.253Z,18.69
2019-05-10T13:42:45.798Z,18.87
2019-05-10T13:45:13.227Z,18.73
2019-05-10T13:47:43.874Z,18.45
2019-05-10T13:50:15.804Z,17.89
2019-05-10T13:52:46.846Z,18.25
2019-05-10T13:55:17.550Z,18.34
2019-05-10T13:57:49.517Z,18.68
2019-05-10T14:00:21.616Z,18.42
2019-05-10T14:02:52.282Z,18.31
2019-05-10T14:05:22.968Z,18.46
2019-05-10T14:07:53.651Z,18.57
2019-05-10T14:10:25.356Z,18.52
2019-05-10T14:13:02.626Z,18.67
2019-05-10T14:15:29.678Z,18.09
2019-05-10T14:18:00.689Z,18.37
2019-05-10T14:20:31.634Z,18.35
2019-05-10T14:23:02.344Z,18.34
2019-05-10T14:25:36.134Z,18.14
2019-05-10T14:28:09.891Z,18.03
2019-05-10T14:30:38.172Z,17.89
2019-05-10T14:33:14.576Z,17.98
2019-05-10T14:35:41.296Z,17.53
2019-05-10T14:38:11.991Z,17.77
2019-05-10T14:40:42.693Z,17.46
2019-05-10T14:43:13.747Z,17.58
2019-05-10T14:45:44.678Z,17.70
2019-05-10T14:48:15.635Z,17.86
2019-05-10T14:50:47.111Z,17.94
2019-05-10T14:53:19.879Z,18.05
2019-05-10T14:55:51.342Z,17.69
2019-05-10T14:58:22.452Z,17.86
2019-05-10T15:00:53.662Z,17.92
2019-05-10T15:03:24.337Z,17.97
2019-05-10T15:06:00.976Z,18.28
2019-05-10T15:08:28.016Z,18.19
2019-05-10T15:10:59.136Z,18.18
2019-05-10T15:13:30.164Z,18.29
2019-05-10T15:16:01.115Z,18.33
2019-05-10T15:18:31.823Z,18.38
2019-05-10T15:21:02.499Z,18.13
2019-05-10T15:23:33.580Z,18.32
2019-05-10T15:26:11.451Z,18.48
2019-05-10T15:28:40.766Z,18.64
2019-05-10T15:31:10.036Z,18.76
2019-05-10T15:33:40.775Z,18.19
2019-05-10T15:36:11.714Z,18.03
2019-05-10T15:38:50.087Z,18.16
2019-05-10T15:41:17.040Z,17.88
2019-05-10T15:43:49.039Z,17.95
2019-05-10T15:46:23.052Z,18.23
2019-05-10T15:48:52.166Z,17.77
2019-05-10T15:51:35.298Z,17.68
2019-05-10T15:54:03.802Z,17.87
2019-05-10T15:56:27.896Z,17.62
2019-05-10T15:58:58.926Z,17.39
2019-05-10T16:01:29.623Z,16.96
2019-05-10T16:04:00.568Z,17.19
2019-05-10T16:06:32.570Z,17.29
2019-05-10T16:09:16.994Z,17.34
2019-05-10T16:11:38.406Z,17.15
2019-05-10T16:14:09.409Z,17.32
2019-05-10T16:16:40.054Z,17.34
2019-05-10T16:19:12.802Z,17.41
2019-05-10T16:21:46.605Z,17.45
2019-05-10T16:24:25.377Z,17.43
2019-05-10T16:26:49.288Z,17.03
2019-05-10T16:29:20.257Z,16.96
2019-05-10T16:31:50.954Z,17.03
2019-05-10T16:34:26.507Z,16.94
2019-05-10T16:36:54.603Z,16.77
2019-05-10T16:39:25.286Z,16.62
2019-05-10T16:41:55.999Z,16.29
2019-05-10T16:44:26.944Z,16.23
2019-05-10T16:46:57.893Z,16.12
2019-05-10T16:49:28.590Z,16.03
2019-05-10T16:51:59.594Z,15.95
2019-05-10T16:54:31.004Z,15.91
2019-05-10T16:57:02.068Z,15.72
2019-05-10T16:59:35.127Z,15.84
2019-05-10T17:02:06.550Z,15.84
2019-05-10T17:04:39.803Z,15.77
2019-05-10T17:07:12.858Z,15.75
2019-05-10T17:09:43.034Z,15.80
2019-05-10T17:12:14.110Z,15.89
2019-05-10T17:14:45.044Z,15.93
2019-05-10T17:17:15.778Z,16.11
2019-05-10T17:19:46.499Z,16.14
2019-05-10T17:22:17.429Z,15.98
2019-05-10T17:24:48.377Z,16.04
2019-05-10T17:27:19.111Z,16.17
2019-05-10T17:29:51.312Z,16.19
2019-05-10T17:32:24.663Z,16.28
2019-05-10T17:34:59.198Z,16.04
2019-05-10T17:37:29.939Z,16.22
2019-05-10T17:39:59.563Z,16.40
2019-05-10T17:42:30.750Z,16.48
2019-05-10T17:45:04.485Z,16.24
2019-05-10T17:47:35.534Z,16.00
2019-05-10T17:50:10.500Z,15.93
2019-05-10T17:52:41.501Z,15.83
2019-05-10T17:55:16.906Z,15.79
2019-05-10T17:57:48.730Z,15.69
2019-05-10T18:00:19.556Z,15.67
2019-05-10T18:02:50.584Z,15.86
2019-05-10T18:05:23.108Z,15.70
2019-05-10T18:07:55.044Z,15.58
2019-05-10T18:10:25.832Z,15.60
2019-05-10T18:12:57.445Z,15.68
2019-05-10T18:15:33.038Z,15.65
2019-05-10T18:18:02.783Z,15.61
2019-05-10T18:20:41.074Z,15.55
2019-05-10T18:23:07.230Z,15.60
2019-05-10T18:25:39.255Z,15.64
2019-05-10T18:28:09.910Z,15.59
2019-05-10T18:30:40.598Z,15.44
2019-05-10T18:33:13.948Z,15.42
2019-05-10T18:35:47.649Z,15.42
2019-05-10T18:38:18.443Z,15.40
2019-05-10T18:40:49.904Z,15.38
2019-05-10T18:43:20.619Z,15.35
2019-05-10T18:45:51.335Z,15.33
2019-05-10T18:48:28.088Z,15.34
2019-05-10T18:50:59.049Z,15.32
2019-05-10T18:53:31.207Z,15.29
2019-05-10T18:56:02.690Z,15.26
2019-05-10T18:58:34.718Z,15.24
2019-05-10T19:01:05.865Z,15.18
2019-05-10T19:03:39.862Z,15.25
2019-05-10T19:06:11.739Z,15.09
2019-05-10T19:08:44.110Z,15.03
2019-05-10T19:11:16.857Z,14.93
2019-05-10T19:13:53.752Z,14.82
2019-05-10T19:16:26.127Z,14.85
2019-05-10T19:18:55.898Z,14.83
2019-05-10T19:21:30.619Z,14.79
2019-05-10T19:23:59.230Z,14.71
2019-05-10T19:26:31.711Z,14.60
2019-05-10T19:29:05.347Z,14.53
2019-05-10T19:31:38.219Z,14.52
2019-05-10T19:34:09.029Z,14.40
2019-05-10T19:36:40.794Z,14.35
2019-05-10T19:39:12.714Z,14.23
2019-05-10T19:41:43.644Z,14.10
2019-05-10T19:44:14.317Z,14.05
2019-05-10T19:46:45.239Z,13.82
2019-05-10T19:49:16.232Z,13.77
2019-05-10T19:51:48.850Z,13.77
2019-05-10T19:54:21.339Z,13.71
2019-05-10T19:56:55.146Z,13.69
2019-05-10T19:59:24.731Z,13.59
2019-05-10T20:01:55.425Z,13.49
2019-05-10T20:04:26.105Z,13.43
2019-05-10T20:06:57.075Z,13.38
2019-05-10T20:09:27.768Z,13.36
2019-05-10T20:11:58.450Z,13.42
2019-05-10T20:14:29.386Z,13.25
2019-05-10T20:17:00.337Z,13.26
2019-05-10T20:19:31.266Z,13.00
2019-05-10T20:22:02.175Z,12.96
2019-05-10T20:24:33.198Z,13.00
2019-05-10T20:27:04.160Z,12.88
2019-05-10T20:29:35.812Z,12.89
2019-05-10T20:32:06.520Z,13.04
2019-05-10T20:34:37.195Z,13.00
2019-05-10T20:37:08.157Z,12.96
2019-05-10T20:39:38.860Z,12.97
2019-05-10T20:42:09.862Z,13.02
2019-05-10T20:44:40.958Z,12.99
2019-05-10T20:47:11.951Z,12.93
2019-05-10T20:49:42.768Z,12.87
2019-05-10T20:52:13.524Z,12.86
2019-05-10T20:54:44.496Z,12.81
2019-05-10T20:57:15.177Z,12.68
2019-05-10T20:59:46.674Z,12.66
2019-05-10T21:02:17.761Z,12.56
2019-05-10T21:04:49.212Z,12.50
2019-05-10T21:07:20.493Z,12.29
2019-05-10T21:09:51.417Z,12.24
2019-05-10T21:12:22.099Z,12.23
2019-05-10T21:14:53.042Z,12.15
2019-05-10T21:17:24.030Z,12.13
2019-05-10T21:19:54.993Z,12.15
2019-05-10T21:22:26.263Z,12.22
2019-05-10T21:24:57.284Z,12.19
2019-05-10T21:27:27.934Z,12.21
2019-05-10T21:29:58.924Z,12.11
2019-05-10T21:32:29.854Z,12.07
2019-05-10T21:35:00.839Z,11.98
2019-05-10T21:37:31.761Z,11.90
2019-05-10T21:40:02.721Z,11.71
2019-05-10T21:42:34.272Z,11.63
2019-05-10T21:45:05.749Z,11.55
2019-05-10T21:47:50.662Z,11.55
2019-05-10T21:50:09.323Z,11.61
2019-05-10T21:52:40.351Z,11.71
2019-05-10T21:55:11.465Z,11.71
2019-05-10T21:57:42.638Z,11.72
2019-05-10T22:00:16.450Z,11.71
2019-05-10T22:02:49.264Z,11.67
2019-05-10T22:05:20.338Z,11.65
2019-05-10T22:07:51.075Z,11.65
2019-05-10T22:10:21.818Z,11.62
2019-05-10T22:12:52.495Z,11.61
2019-05-10T22:15:23.205Z,11.67
2019-05-10T22:17:54.295Z,11.73
2019-05-10T22:20:24.978Z,11.78
2019-05-10T22:22:55.670Z,11.84
2019-05-10T22:25:26.362Z,11.71
2019-05-10T22:27:57.034Z,11.58
2019-05-10T22:30:27.812Z,11.59
2019-05-10T22:32:58.834Z,11.62
2019-05-10T22:35:29.544Z,11.62
2019-05-10T22:38:00.578Z,11.68
2019-05-10T22:40:31.553Z,11.69
2019-05-10T22:43:02.259Z,11.77
2019-05-10T22:45:32.929Z,11.76
2019-05-10T22:48:04.005Z,11.77
2019-05-10T22:50:34.666Z,11.68
2019-05-10T22:53:05.394Z,11.71
2019-05-10T22:55:36.731Z,11.81
2019-05-10T22:58:07.499Z,11.75
2019-05-10T23:00:38.240Z,11.74
2019-05-10T23:03:09.243Z,11.70
2019-05-10T23:05:40.048Z,11.71
2019-05-10T23:08:10.985Z,11.76
2019-05-10T23:10:41.706Z,11.76
2019-05-10T23:13:12.391Z,11.89
2019-05-10T23:15:43.075Z,11.89
2019-05-10T23:18:14.148Z,11.88
2019-05-10T23:20:44.809Z,11.84
2019-05-10T23:23:15.833Z,11.91
2019-05-10T23:25:46.495Z,11.77
2019-05-10T23:28:17.521Z,11.63
2019-05-10T23:30:48.198Z,11.44
2019-05-10T23:33:19.059Z,11.40
2019-05-10T23:35:49.761Z,11.36
2019-05-10T23:38:20.877Z,11.31
2019-05-10T23:40:51.646Z,11.44
2019-05-10T23:43:22.306Z,11.48
2019-05-10T23:45:53.015Z,11.48
2019-05-10T23:48:24.045Z,11.52
2019-05-10T23:50:54.756Z,11.55
2019-05-10T23:53:25.448Z,11.48
2019-05-10T23:55:56.383Z,11.46
2019-05-10T23:58:27.923Z,11.45
